Lake Pleasant, Massachusetts
Current Conditions -  °F | °C
As of 12:52 AM on Wednesday 22 Oct 2014 (Local Time) from KORE Reporting Station
Overcast Overcast  
Wind Chill: 51°   Ceiling: 1000
Heat Index: 51°   Visibility: 10mi
Dew Point: 47°   Wind: 9mph
Humidity: 86%   Direction: 40°NE
Pressure: 30"   Gusts: NA
Location:  42.56°N, 72.52°W
Report Text: KORE 220452Z AUTO 04008KT 10SM OVC010 11/08 A3000 RMK AO2 SLP162 T01060083 401560056
Loading
Personal Weather Stations






























Interactive Weather Map
Tropical Storm Tracking
New forecast layout! Learn more

10-Day Weather Forecast

Advertisements
Track Severe Weather on mobile